map of UTN home
UTN - Airport
Location
City:  Upington, Northern Cape, South Africa
Name:Upington International Airport
ICAO:FAUP
IATA:UTN

Details
Type:Airport (Aerodrome, Airfield)
Use:Public/Civil, International (customs port of entry)
Latitude:2823'57"S (-28.399096)
Longitude:2115'37"E (21.260239)
Datum:WGS 1984
Elevation:2782 ft (848 m)
Variation:19.84W (WMM2015 magnetic declination)
-0.07 annual change
Runways:2
Longest:16076 × 197 ft (4900 × 60 m), paved

Time
Time Zone:UTC+2
Local Time:

Weather
METAR:FAUP 150800Z 23004KT CAVOK 29/01 Q1019 NOSIG

Related Locations
Nearby:
Farthest:HPV: 12002 mi / 19315 km
Hanalei [Princeville Airport], Kauai, HI, US

Find:

   beyond  
but within

Other Information
Maps:
NOTAMs:
Links:
Sources:

  
  • flag of South Africa
  • flag of Northern Cape
  

Sectional Chart

Flight Planning
at skyvector.com

Satellite Image

Google Maps Satellite view

 

Copyright © 2004-2018 Karl L. Swartz. All rights reserved.
The Great Circle Mapper name and logo are trademarks of the Great Circle Mapper.
All other trademarks mentioned herein belong to their respective owners.
Please see credits for attibutions and further copyright information.

  Follow gcmap on Facebook Follow gcmap on Twitter Follow gcmap on Google+ GCmap on LinkedIn

hCard Microformat

Geo Microformat